PPIZ METAR and TAF weather

Enter ICAO airport designator
Station Type Date Time Source
PPIZ METAR 2019/05/21 19:56 UTC NOAA

PPIZ 211956Z AUTO 04011KT 10SM OVC008 01/M01 A3000 RMK AO2 SLP162 T00111011 FZRANO


Station Type Date Time Source
PPIZ Decoded METAR 2019/05/21 19:56 UTC NOAA

Point Lay, Point Lay LRRS Airport, AK, United States (PPIZ) 69-43N 163-00W
May 21, 2019 - 03:56 PM EDT / 2019.05.21 1956 UTC
Wind: from the NE (040 degrees) at 13 MPH (11 KT):0
Visibility: 10 mile(s):0
Sky conditions: overcast
Temperature: 34.0 F (1.1 C)
Windchill: 24 F (-4 C):1
Dew Point: 30.0 F (-1.1 C)
Relative Humidity: 85%
Pressure (altimeter): 30 in. Hg (1015 hPa)
ob: PPIZ 211956Z AUTO 04011KT 10SM OVC008 01/M01 A3000 RMK AO2 SLP162 T00111011 FZRANO
cycle: 20

Station Type Date Time Source
PPIZ TAF UTC NOAA

Error!

Example: see airport list